sensor_id;sensor_type;location;lat;lon;timestamp;P1;durP1;ratioP1;P2;durP2;ratioP2
65039;SDS011;51606;45.000;38.612;2023-07-31T04:07:59;6.90;;;2.97;;
65039;SDS011;51606;45.000;38.612;2023-07-31T04:10:26;4.18;;;2.13;;
65039;SDS011;51606;45.000;38.612;2023-07-31T04:12:52;5.18;;;2.50;;
65039;SDS011;51606;45.000;38.612;2023-07-31T04:15:19;3.08;;;1.92;;
65039;SDS011;51606;45.000;38.612;2023-07-31T04:17:45;4.35;;;1.90;;
65039;SDS011;51606;45.000;38.612;2023-07-31T04:20:12;3.30;;;2.35;;
65039;SDS011;51606;45.000;38.612;2023-07-31T04:22:38;5.65;;;1.88;;
65039;SDS011;51606;45.000;38.612;2023-07-31T04:25:05;2.33;;;1.60;;
65039;SDS011;51606;45.000;38.612;2023-07-31T04:27:31;5.70;;;2.15;;
65039;SDS011;51606;45.000;38.612;2023-07-31T04:29:58;4.50;;;2.20;;
65039;SDS011;51606;45.000;38.612;2023-07-31T04:32:24;2.88;;;2.00;;
65039;SDS011;51606;45.000;38.612;2023-07-31T04:34:51;18.40;;;2.30;;
65039;SDS011;51606;45.000;38.612;2023-07-31T04:37:17;2.35;;;1.95;;
65039;SDS011;51606;45.000;38.612;2023-07-31T04:39:43;2.97;;;2.15;;
65039;SDS011;51606;45.000;38.612;2023-07-31T04:42:10;7.10;;;2.10;;
65039;SDS011;51606;45.000;38.612;2023-07-31T04:44:36;5.35;;;2.13;;
65039;SDS011;51606;45.000;38.612;2023-07-31T04:47:02;5.95;;;2.00;;
65039;SDS011;51606;45.000;38.612;2023-07-31T04:49:29;5.40;;;2.10;;
65039;SDS011;51606;45.000;38.612;2023-07-31T04:51:55;2.55;;;1.92;;
65039;SDS011;51606;45.000;38.612;2023-07-31T04:54:22;3.95;;;2.38;;
65039;SDS011;51606;45.000;38.612;2023-07-31T04:56:48;5.88;;;2.95;;
65039;SDS011;51606;45.000;38.612;2023-07-31T04:59:14;2.55;;;2.28;;
65039;SDS011;51606;45.000;38.612;2023-07-31T05:01:41;4.28;;;2.28;;
65039;SDS011;51606;45.000;38.612;2023-07-31T05:04:07;13.35;;;2.42;;
65039;SDS011;51606;45.000;38.612;2023-07-31T05:06:33;7.45;;;2.20;;
65039;SDS011;51606;45.000;38.612;2023-07-31T05:09:00;3.25;;;2.20;;
65039;SDS011;51606;45.000;38.612;2023-07-31T05:11:26;5.22;;;2.10;;
65039;SDS011;51606;45.000;38.612;2023-07-31T05:13:53;4.60;;;2.58;;
65039;SDS011;51606;45.000;38.612;2023-07-31T05:16:19;3.95;;;2.13;;
65039;SDS011;51606;45.000;38.612;2023-07-31T05:18:46;2.88;;;2.20;;
65039;SDS011;51606;45.000;38.612;2023-07-31T05:21:13;6.53;;;1.95;;
65039;SDS011;51606;45.000;38.612;2023-07-31T05:23:39;3.10;;;2.00;;
65039;SDS011;51606;45.000;38.612;2023-07-31T05:26:06;3.25;;;2.22;;
65039;SDS011;51606;45.000;38.612;2023-07-31T05:28:34;5.32;;;2.10;;
65039;SDS011;51606;45.000;38.612;2023-07-31T05:31:01;2.75;;;2.10;;
65039;SDS011;51606;45.000;38.612;2023-07-31T05:33:28;2.55;;;2.05;;
65039;SDS011;51606;45.000;38.612;2023-07-31T05:35:55;2.30;;;2.00;;
65039;SDS011;51606;45.000;38.612;2023-07-31T05:38:21;4.03;;;2.00;;
65039;SDS011;51606;45.000;38.612;2023-07-31T05:40:48;12.32;;;1.95;;
65039;SDS011;51606;45.000;38.612;2023-07-31T05:43:14;3.53;;;2.17;;
65039;SDS011;51606;45.000;38.612;2023-07-31T05:45:42;2.97;;;2.05;;
65039;SDS011;51606;45.000;38.612;2023-07-31T05:48:10;4.60;;;2.33;;
65039;SDS011;51606;45.000;38.612;2023-07-31T05:50:36;2.97;;;2.15;;
65039;SDS011;51606;45.000;38.612;2023-07-31T05:53:04;3.78;;;2.30;;
65039;SDS011;51606;45.000;38.612;2023-07-31T05:55:32;3.47;;;1.88;;
65039;SDS011;51606;45.000;38.612;2023-07-31T05:57:58;6.35;;;2.10;;
65039;SDS011;51606;45.000;38.612;2023-07-31T06:00:24;2.85;;;2.35;;
65039;SDS011;51606;45.000;38.612;2023-07-31T06:02:51;6.03;;;1.85;;
65039;SDS011;51606;45.000;38.612;2023-07-31T06:05:17;3.85;;;2.20;;
65039;SDS011;51606;45.000;38.612;2023-07-31T06:07:44;2.58;;;2.05;;
65039;SDS011;51606;45.000;38.612;2023-07-31T06:10:10;3.05;;;1.75;;
65039;SDS011;51606;45.000;38.612;2023-07-31T06:12:37;2.80;;;2.10;;
65039;SDS011;51606;45.000;38.612;2023-07-31T06:15:03;4.55;;;2.00;;
65039;SDS011;51606;45.000;38.612;2023-07-31T06:17:30;3.65;;;1.92;;
65039;SDS011;51606;45.000;38.612;2023-07-31T06:19:57;4.05;;;1.90;;
65039;SDS011;51606;45.000;38.612;2023-07-31T06:22:23;4.25;;;1.92;;
65039;SDS011;51606;45.000;38.612;2023-07-31T06:24:50;4.28;;;2.00;;
65039;SDS011;51606;45.000;38.612;2023-07-31T06:27:16;3.03;;;2.08;;
65039;SDS011;51606;45.000;38.612;2023-07-31T06:29:45;6.78;;;2.20;;
65039;SDS011;51606;45.000;38.612;2023-07-31T06:32:12;3.45;;;2.08;;
65039;SDS011;51606;45.000;38.612;2023-07-31T06:34:39;3.67;;;1.90;;
65039;SDS011;51606;45.000;38.612;2023-07-31T06:37:05;3.22;;;2.05;;
65039;SDS011;51606;45.000;38.612;2023-07-31T06:39:32;22.48;;;2.55;;
65039;SDS011;51606;45.000;38.612;2023-07-31T06:41:58;3.70;;;2.00;;
65039;SDS011;51606;45.000;38.612;2023-07-31T06:44:25;4.60;;;2.17;;
65039;SDS011;51606;45.000;38.612;2023-07-31T06:46:51;3.53;;;1.75;;
65039;SDS011;51606;45.000;38.612;2023-07-31T06:49:18;5.20;;;2.00;;
65039;SDS011;51606;45.000;38.612;2023-07-31T06:51:44;9.73;;;2.20;;
65039;SDS011;51606;45.000;38.612;2023-07-31T06:54:10;3.72;;;2.10;;
65039;SDS011;51606;45.000;38.612;2023-07-31T06:56:37;4.32;;;2.05;;
65039;SDS011;51606;45.000;38.612;2023-07-31T06:59:03;3.35;;;2.30;;
65039;SDS011;51606;45.000;38.612;2023-07-31T07:01:30;3.20;;;2.00;;
65039;SDS011;51606;45.000;38.612;2023-07-31T07:03:56;2.42;;;1.90;;
65039;SDS011;51606;45.000;38.612;2023-07-31T07:06:23;2.85;;;2.05;;
65039;SDS011;51606;45.000;38.612;2023-07-31T07:08:49;3.17;;;1.90;;
65039;SDS011;51606;45.000;38.612;2023-07-31T07:11:15;5.97;;;2.50;;
65039;SDS011;51606;45.000;38.612;2023-07-31T07:13:42;3.63;;;1.80;;
65039;SDS011;51606;45.000;38.612;2023-07-31T07:16:08;2.38;;;1.92;;
65039;SDS011;51606;45.000;38.612;2023-07-31T07:18:36;7.82;;;2.38;;
65039;SDS011;51606;45.000;38.612;2023-07-31T07:21:02;3.42;;;1.85;;
65039;SDS011;51606;45.000;38.612;2023-07-31T07:23:28;4.30;;;2.30;;
65039;SDS011;51606;45.000;38.612;2023-07-31T07:25:59;4.75;;;1.90;;
65039;SDS011;51606;45.000;38.612;2023-07-31T07:28:25;2.22;;;1.90;;
65039;SDS011;51606;45.000;38.612;2023-07-31T07:30:52;2.72;;;2.10;;
65039;SDS011;51606;45.000;38.612;2023-07-31T07:33:21;3.78;;;2.10;;
65039;SDS011;51606;45.000;38.612;2023-07-31T07:35:47;7.75;;;2.33;;
65039;SDS011;51606;45.000;38.612;2023-07-31T07:38:14;2.92;;;2.00;;
65039;SDS011;51606;45.000;38.612;2023-07-31T07:40:41;3.63;;;2.03;;
65039;SDS011;51606;45.000;38.612;2023-07-31T07:43:07;2.28;;;1.80;;
65039;SDS011;51606;45.000;38.612;2023-07-31T07:45:34;4.75;;;1.83;;
65039;SDS011;51606;45.000;38.612;2023-07-31T07:48:00;3.10;;;1.40;;
65039;SDS011;51606;45.000;38.612;2023-07-31T07:50:27;2.78;;;1.63;;
65039;SDS011;51606;45.000;38.612;2023-07-31T07:52:53;2.90;;;1.80;;
65039;SDS011;51606;45.000;38.612;2023-07-31T07:55:19;2.88;;;1.88;;
65039;SDS011;51606;45.000;38.612;2023-07-31T07:57:46;3.05;;;1.33;;
65039;SDS011;51606;45.000;38.612;2023-07-31T08:00:13;3.00;;;1.70;;
65039;SDS011;51606;45.000;38.612;2023-07-31T08:02:39;2.50;;;1.40;;
65039;SDS011;51606;45.000;38.612;2023-07-31T08:05:06;2.55;;;1.80;;
65039;SDS011;51606;45.000;38.612;2023-07-31T08:07:33;7.45;;;1.55;;
65039;SDS011;51606;45.000;38.612;2023-07-31T08:09:59;2.45;;;1.52;;
65039;SDS011;51606;45.000;38.612;2023-07-31T08:12:25;1.95;;;1.60;;
65039;SDS011;51606;45.000;38.612;2023-07-31T08:14:52;3.60;;;1.35;;
65039;SDS011;51606;45.000;38.612;2023-07-31T08:17:18;4.15;;;1.23;;
65039;SDS011;51606;45.000;38.612;2023-07-31T08:19:45;4.22;;;1.60;;
65039;SDS011;51606;45.000;38.612;2023-07-31T08:22:12;3.38;;;1.92;;
65039;SDS011;51606;45.000;38.612;2023-07-31T08:24:38;4.30;;;1.50;;
65039;SDS011;51606;45.000;38.612;2023-07-31T08:27:05;3.17;;;1.65;;
65039;SDS011;51606;45.000;38.612;2023-07-31T08:29:32;2.38;;;1.55;;
65039;SDS011;51606;45.000;38.612;2023-07-31T08:31:58;1.52;;;1.38;;
65039;SDS011;51606;45.000;38.612;2023-07-31T08:34:25;3.35;;;1.60;;
65039;SDS011;51606;45.000;38.612;2023-07-31T08:36:51;2.55;;;1.60;;
65039;SDS011;51606;45.000;38.612;2023-07-31T08:39:17;3.03;;;1.70;;
65039;SDS011;51606;45.000;38.612;2023-07-31T08:41:44;3.47;;;1.45;;
65039;SDS011;51606;45.000;38.612;2023-07-31T08:44:10;1.85;;;1.40;;
65039;SDS011;51606;45.000;38.612;2023-07-31T08:46:38;2.25;;;1.60;;
65039;SDS011;51606;45.000;38.612;2023-07-31T08:49:05;4.82;;;1.95;;
65039;SDS011;51606;45.000;38.612;2023-07-31T08:51:34;2.25;;;1.45;;
65039;SDS011;51606;45.000;38.612;2023-07-31T08:54:01;3.50;;;1.65;;
65039;SDS011;51606;45.000;38.612;2023-07-31T08:56:29;1.63;;;1.50;;
65039;SDS011;51606;45.000;38.612;2023-07-31T08:59:01;2.00;;;1.40;;
65039;SDS011;51606;45.000;38.612;2023-07-31T09:01:30;3.35;;;1.65;;
65039;SDS011;51606;45.000;38.612;2023-07-31T09:04:00;2.38;;;1.65;;
65039;SDS011;51606;45.000;38.612;2023-07-31T09:06:29;2.03;;;1.52;;
65039;SDS011;51606;45.000;38.612;2023-07-31T09:08:57;2.30;;;1.73;;
65039;SDS011;51606;45.000;38.612;2023-07-31T09:11:24;2.80;;;1.50;;
65039;SDS011;51606;45.000;38.612;2023-07-31T09:13:52;2.35;;;1.63;;
65039;SDS011;51606;45.000;38.612;2023-07-31T09:16:19;2.33;;;1.40;;
65039;SDS011;51606;45.000;38.612;2023-07-31T09:18:56;2.60;;;1.52;;
65039;SDS011;51606;45.000;38.612;2023-07-31T09:21:24;1.90;;;1.30;;
65039;SDS011;51606;45.000;38.612;2023-07-31T09:23:51;2.65;;;1.40;;
65039;SDS011;51606;45.000;38.612;2023-07-31T09:26:29;1.95;;;1.40;;
65039;SDS011;51606;45.000;38.612;2023-07-31T09:28:57;4.82;;;1.60;;
65039;SDS011;51606;45.000;38.612;2023-07-31T09:34:00;1.95;;;1.17;;
65039;SDS011;51606;45.000;38.612;2023-07-31T09:36:28;3.78;;;1.40;;
65039;SDS011;51606;45.000;38.612;2023-07-31T09:39:01;1.75;;;1.25;;
65039;SDS011;51606;45.000;38.612;2023-07-31T09:41:30;5.22;;;1.42;;
65039;SDS011;51606;45.000;38.612;2023-07-31T09:43:57;4.15;;;1.70;;
65039;SDS011;51606;45.000;38.612;2023-07-31T09:46:23;4.00;;;1.40;;
65039;SDS011;51606;45.000;38.612;2023-07-31T09:48:53;3.45;;;1.35;;
65039;SDS011;51606;45.000;38.612;2023-07-31T09:51:29;2.30;;;1.20;;
65039;SDS011;51606;45.000;38.612;2023-07-31T09:53:56;1.60;;;1.30;;
65039;SDS011;51606;45.000;38.612;2023-07-31T09:56:23;2.03;;;1.27;;
65039;SDS011;51606;45.000;38.612;2023-07-31T09:58:51;1.75;;;1.60;;
65039;SDS011;51606;45.000;38.612;2023-07-31T10:01:20;1.70;;;1.10;;
65039;SDS011;51606;45.000;38.612;2023-07-31T10:03:46;3.45;;;1.33;;
65039;SDS011;51606;45.000;38.612;2023-07-31T10:06:13;3.63;;;1.40;;
65039;SDS011;51606;45.000;38.612;2023-07-31T10:08:41;2.03;;;1.20;;
65039;SDS011;51606;45.000;38.612;2023-07-31T10:11:09;2.75;;;1.52;;
65039;SDS011;51606;45.000;38.612;2023-07-31T10:13:36;3.30;;;1.27;;
65039;SDS011;51606;45.000;38.612;2023-07-31T10:16:04;2.20;;;1.23;;
65039;SDS011;51606;45.000;38.612;2023-07-31T10:18:31;3.95;;;1.20;;
65039;SDS011;51606;45.000;38.612;2023-07-31T10:20:58;2.45;;;1.40;;
65039;SDS011;51606;45.000;38.612;2023-07-31T10:23:25;7.90;;;1.52;;
65039;SDS011;51606;45.000;38.612;2023-07-31T10:25:55;2.40;;;1.38;;
65039;SDS011;51606;45.000;38.612;2023-07-31T10:28:24;1.88;;;1.20;;
65039;SDS011;51606;45.000;38.612;2023-07-31T10:30:52;1.90;;;1.20;;
65039;SDS011;51606;45.000;38.612;2023-07-31T10:33:22;1.80;;;1.40;;
65039;SDS011;51606;45.000;38.612;2023-07-31T10:35:48;2.65;;;1.42;;
65039;SDS011;51606;45.000;38.612;2023-07-31T10:38:17;5.32;;;1.50;;
65039;SDS011;51606;45.000;38.612;2023-07-31T10:40:43;2.75;;;1.35;;
65039;SDS011;51606;45.000;38.612;2023-07-31T10:43:23;2.72;;;1.38;;
65039;SDS011;51606;45.000;38.612;2023-07-31T10:45:53;1.88;;;1.10;;
65039;SDS011;51606;45.000;38.612;2023-07-31T10:48:20;3.72;;;1.08;;
65039;SDS011;51606;45.000;38.612;2023-07-31T10:50:49;2.80;;;1.13;;
65039;SDS011;51606;45.000;38.612;2023-07-31T10:53:26;2.17;;;1.08;;
65039;SDS011;51606;45.000;38.612;2023-07-31T10:56:01;2.90;;;1.40;;
65039;SDS011;51606;45.000;38.612;2023-07-31T10:58:33;2.45;;;1.00;;
65039;SDS011;51606;45.000;38.612;2023-07-31T11:01:01;1.80;;;1.17;;
65039;SDS011;51606;45.000;38.612;2023-07-31T11:03:42;5.00;;;1.45;;
65039;SDS011;51606;45.000;38.612;2023-07-31T11:06:09;1.40;;;1.15;;
65039;SDS011;51606;45.000;38.612;2023-07-31T11:08:40;3.00;;;1.20;;
65039;SDS011;51606;45.000;38.612;2023-07-31T11:11:12;2.15;;;1.20;;
65039;SDS011;51606;45.000;38.612;2023-07-31T11:13:46;1.95;;;1.25;;
65039;SDS011;51606;45.000;38.612;2023-07-31T11:16:24;1.80;;;1.02;;
65039;SDS011;51606;45.000;38.612;2023-07-31T11:18:51;5.00;;;1.30;;
65039;SDS011;51606;45.000;38.612;2023-07-31T11:21:23;1.83;;;1.10;;
65039;SDS011;51606;45.000;38.612;2023-07-31T11:23:51;6.70;;;1.20;;
65039;SDS011;51606;45.000;38.612;2023-07-31T11:26:19;5.65;;;1.13;;
65039;SDS011;51606;45.000;38.612;2023-07-31T11:28:46;1.73;;;0.93;;
65039;SDS011;51606;45.000;38.612;2023-07-31T11:31:14;3.63;;;1.23;;
65039;SDS011;51606;45.000;38.612;2023-07-31T11:33:41;1.00;;;0.90;;
65039;SDS011;51606;45.000;38.612;2023-07-31T11:36:14;2.83;;;1.10;;
65039;SDS011;51606;45.000;38.612;2023-07-31T11:38:44;1.77;;;1.20;;
65039;SDS011;51606;45.000;38.612;2023-07-31T11:41:13;8.13;;;1.08;;
65039;SDS011;51606;45.000;38.612;2023-07-31T11:43:41;1.65;;;1.00;;
65039;SDS011;51606;45.000;38.612;2023-07-31T11:46:09;3.63;;;0.93;;
65039;SDS011;51606;45.000;38.612;2023-07-31T11:48:36;3.17;;;1.05;;
65039;SDS011;51606;45.000;38.612;2023-07-31T11:51:04;1.50;;;1.00;;
65039;SDS011;51606;45.000;38.612;2023-07-31T11:56:07;1.52;;;1.10;;
65039;SDS011;51606;45.000;38.612;2023-07-31T11:58:37;2.03;;;1.02;;
65039;SDS011;51606;45.000;38.612;2023-07-31T12:01:04;2.22;;;1.15;;
65039;SDS011;51606;45.000;38.612;2023-07-31T12:03:32;3.03;;;1.52;;
65039;SDS011;51606;45.000;38.612;2023-07-31T12:05:59;2.30;;;1.08;;
65039;SDS011;51606;45.000;38.612;2023-07-31T12:08:26;6.68;;;1.33;;
65039;SDS011;51606;45.000;38.612;2023-07-31T12:10:53;1.60;;;1.02;;
65039;SDS011;51606;45.000;38.612;2023-07-31T12:13:23;1.92;;;1.13;;
65039;SDS011;51606;45.000;38.612;2023-07-31T12:15:55;2.63;;;1.27;;
65039;SDS011;51606;45.000;38.612;2023-07-31T12:18:24;3.88;;;1.05;;
65039;SDS011;51606;45.000;38.612;2023-07-31T12:20:55;1.98;;;1.20;;
65039;SDS011;51606;45.000;38.612;2023-07-31T12:23:27;11.30;;;1.42;;
65039;SDS011;51606;45.000;38.612;2023-07-31T12:26:07;3.05;;;1.08;;
65039;SDS011;51606;45.000;38.612;2023-07-31T12:28:36;1.70;;;1.13;;
65039;SDS011;51606;45.000;38.612;2023-07-31T12:31:11;1.40;;;1.10;;
65039;SDS011;51606;45.000;38.612;2023-07-31T12:33:39;2.42;;;1.38;;
65039;SDS011;51606;45.000;38.612;2023-07-31T12:36:13;1.15;;;1.05;;
65039;SDS011;51606;45.000;38.612;2023-07-31T12:38:41;1.25;;;0.98;;
65039;SDS011;51606;45.000;38.612;2023-07-31T12:41:07;11.52;;;1.30;;
65039;SDS011;51606;45.000;38.612;2023-07-31T12:43:35;2.05;;;0.82;;
65039;SDS011;51606;45.000;38.612;2023-07-31T12:46:05;1.10;;;1.00;;
65039;SDS011;51606;45.000;38.612;2023-07-31T12:48:33;1.33;;;1.20;;
65039;SDS011;51606;45.000;38.612;2023-07-31T12:51:03;1.20;;;0.93;;
65039;SDS011;51606;45.000;38.612;2023-07-31T12:53:32;1.27;;;1.10;;
65039;SDS011;51606;45.000;38.612;2023-07-31T12:55:58;1.45;;;0.95;;
65039;SDS011;51606;45.000;38.612;2023-07-31T12:58:25;2.45;;;1.10;;
65039;SDS011;51606;45.000;38.612;2023-07-31T13:00:51;1.80;;;1.20;;
65039;SDS011;51606;45.000;38.612;2023-07-31T13:03:18;2.13;;;1.17;;
65039;SDS011;51606;45.000;38.612;2023-07-31T13:05:44;2.10;;;0.98;;
65039;SDS011;51606;45.000;38.612;2023-07-31T13:08:32;0.85;;;0.85;;
65039;SDS011;51606;45.000;38.612;2023-07-31T13:10:58;4.05;;;1.20;;
65039;SDS011;51606;45.000;38.612;2023-07-31T13:13:24;1.95;;;1.20;;
65039;SDS011;51606;45.000;38.612;2023-07-31T13:15:51;1.38;;;0.93;;
65039;SDS011;51606;45.000;38.612;2023-07-31T13:18:17;2.50;;;1.30;;
65039;SDS011;51606;45.000;38.612;2023-07-31T13:20:43;3.47;;;1.10;;
65039;SDS011;51606;45.000;38.612;2023-07-31T13:23:11;2.88;;;1.40;;
65039;SDS011;51606;45.000;38.612;2023-07-31T13:25:41;1.60;;;1.15;;
65039;SDS011;51606;45.000;38.612;2023-07-31T13:28:07;1.48;;;1.10;;
65039;SDS011;51606;45.000;38.612;2023-07-31T13:30:34;4.57;;;1.08;;
65039;SDS011;51606;45.000;38.612;2023-07-31T13:33:00;4.25;;;1.38;;
65039;SDS011;51606;45.000;38.612;2023-07-31T13:35:27;1.13;;;0.95;;
65039;SDS011;51606;45.000;38.612;2023-07-31T13:37:53;1.27;;;0.93;;
65039;SDS011;51606;45.000;38.612;2023-07-31T13:40:20;1.55;;;1.02;;
65039;SDS011;51606;45.000;38.612;2023-07-31T13:42:46;3.38;;;1.20;;
65039;SDS011;51606;45.000;38.612;2023-07-31T13:45:14;5.38;;;1.10;;
65039;SDS011;51606;45.000;38.612;2023-07-31T13:47:40;1.30;;;1.02;;
65039;SDS011;51606;45.000;38.612;2023-07-31T13:50:06;0.88;;;0.88;;
65039;SDS011;51606;45.000;38.612;2023-07-31T13:52:33;1.67;;;1.00;;
65039;SDS011;51606;45.000;38.612;2023-07-31T13:55:00;5.38;;;0.90;;
65039;SDS011;51606;45.000;38.612;2023-07-31T13:57:26;2.65;;;1.25;;
65039;SDS011;51606;45.000;38.612;2023-07-31T13:59:53;3.25;;;1.10;;
65039;SDS011;51606;45.000;38.612;2023-07-31T14:02:19;3.53;;;1.17;;
65039;SDS011;51606;45.000;38.612;2023-07-31T14:04:45;1.35;;;1.08;;
65039;SDS011;51606;45.000;38.612;2023-07-31T14:07:12;5.70;;;1.40;;
65039;SDS011;51606;45.000;38.612;2023-07-31T14:09:38;2.30;;;1.23;;
65039;SDS011;51606;45.000;38.612;2023-07-31T14:12:05;2.05;;;1.40;;
65039;SDS011;51606;45.000;38.612;2023-07-31T14:14:32;1.38;;;0.90;;
65039;SDS011;51606;45.000;38.612;2023-07-31T14:16:59;2.03;;;1.20;;
65039;SDS011;51606;45.000;38.612;2023-07-31T14:19:25;3.65;;;1.02;;
65039;SDS011;51606;45.000;38.612;2023-07-31T14:21:52;2.05;;;1.10;;
65039;SDS011;51606;45.000;38.612;2023-07-31T14:24:18;5.22;;;1.20;;
65039;SDS011;51606;45.000;38.612;2023-07-31T14:26:44;1.45;;;1.00;;
65039;SDS011;51606;45.000;38.612;2023-07-31T14:29:11;7.53;;;1.35;;
65039;SDS011;51606;45.000;38.612;2023-07-31T14:31:37;1.15;;;1.00;;
65039;SDS011;51606;45.000;38.612;2023-07-31T14:34:04;6.80;;;1.10;;
65039;SDS011;51606;45.000;38.612;2023-07-31T14:36:30;5.53;;;1.00;;
65039;SDS011;51606;45.000;38.612;2023-07-31T14:38:57;2.55;;;1.00;;
65039;SDS011;51606;45.000;38.612;2023-07-31T14:41:23;1.65;;;1.40;;
65039;SDS011;51606;45.000;38.612;2023-07-31T14:43:49;3.97;;;1.30;;
65039;SDS011;51606;45.000;38.612;2023-07-31T14:46:15;3.53;;;1.30;;
65039;SDS011;51606;45.000;38.612;2023-07-31T14:48:42;2.35;;;1.05;;
65039;SDS011;51606;45.000;38.612;2023-07-31T14:51:08;5.20;;;1.30;;
65039;SDS011;51606;45.000;38.612;2023-07-31T14:53:35;8.23;;;1.15;;
65039;SDS011;51606;45.000;38.612;2023-07-31T14:56:01;2.53;;;1.33;;
65039;SDS011;51606;45.000;38.612;2023-07-31T14:58:28;1.48;;;1.02;;
65039;SDS011;51606;45.000;38.612;2023-07-31T15:00:54;5.57;;;1.45;;
65039;SDS011;51606;45.000;38.612;2023-07-31T15:03:21;1.42;;;0.95;;
65039;SDS011;51606;45.000;38.612;2023-07-31T15:05:47;1.42;;;1.10;;
65039;SDS011;51606;45.000;38.612;2023-07-31T15:08:13;5.18;;;1.27;;
65039;SDS011;51606;45.000;38.612;2023-07-31T15:10:40;6.63;;;1.27;;
65039;SDS011;51606;45.000;38.612;2023-07-31T15:13:06;2.10;;;1.40;;
65039;SDS011;51606;45.000;38.612;2023-07-31T15:15:32;3.08;;;1.30;;
65039;SDS011;51606;45.000;38.612;2023-07-31T15:17:59;1.65;;;1.10;;
65039;SDS011;51606;45.000;38.612;2023-07-31T15:20:25;1.48;;;1.33;;
65039;SDS011;51606;45.000;38.612;2023-07-31T15:22:53;3.22;;;1.13;;
65039;SDS011;51606;45.000;38.612;2023-07-31T15:25:19;2.10;;;1.35;;
65039;SDS011;51606;45.000;38.612;2023-07-31T15:27:46;9.40;;;1.65;;
65039;SDS011;51606;45.000;38.612;2023-07-31T15:30:12;5.97;;;1.10;;
65039;SDS011;51606;45.000;38.612;2023-07-31T15:32:41;1.15;;;1.00;;
65039;SDS011;51606;45.000;38.612;2023-07-31T15:35:11;2.53;;;1.08;;
65039;SDS011;51606;45.000;38.612;2023-07-31T15:37:37;1.25;;;1.13;;
65039;SDS011;51606;45.000;38.612;2023-07-31T15:40:04;1.70;;;1.00;;
65039;SDS011;51606;45.000;38.612;2023-07-31T15:42:30;2.10;;;0.95;;
65039;SDS011;51606;45.000;38.612;2023-07-31T15:45:01;2.72;;;1.38;;
65039;SDS011;51606;45.000;38.612;2023-07-31T15:47:27;2.22;;;1.30;;
65039;SDS011;51606;45.000;38.612;2023-07-31T15:49:53;4.63;;;1.48;;
65039;SDS011;51606;45.000;38.612;2023-07-31T15:52:20;8.20;;;1.45;;
65039;SDS011;51606;45.000;38.612;2023-07-31T15:54:46;7.18;;;1.25;;
65039;SDS011;51606;45.000;38.612;2023-07-31T15:57:13;1.83;;;1.20;;
65039;SDS011;51606;45.000;38.612;2023-07-31T15:59:39;3.38;;;1.23;;
65039;SDS011;51606;45.000;38.612;2023-07-31T16:02:05;13.77;;;1.40;;
65039;SDS011;51606;45.000;38.612;2023-07-31T16:04:37;1.77;;;1.05;;
65039;SDS011;51606;45.000;38.612;2023-07-31T16:07:03;1.48;;;1.23;;
65039;SDS011;51606;45.000;38.612;2023-07-31T16:09:30;6.78;;;1.17;;
65039;SDS011;51606;45.000;38.612;2023-07-31T16:11:57;6.50;;;1.08;;
65039;SDS011;51606;45.000;38.612;2023-07-31T16:14:23;1.00;;;0.90;;
65039;SDS011;51606;45.000;38.612;2023-07-31T16:16:50;4.10;;;1.33;;
65039;SDS011;51606;45.000;38.612;2023-07-31T16:19:16;1.85;;;1.25;;
65039;SDS011;51606;45.000;38.612;2023-07-31T16:21:42;1.08;;;0.90;;
65039;SDS011;51606;45.000;38.612;2023-07-31T16:24:09;9.60;;;1.60;;
65039;SDS011;51606;45.000;38.612;2023-07-31T16:26:35;9.05;;;2.35;;
65039;SDS011;51606;45.000;38.612;2023-07-31T16:29:01;20.10;;;1.80;;
65039;SDS011;51606;45.000;38.612;2023-07-31T16:31:28;23.98;;;2.83;;
65039;SDS011;51606;45.000;38.612;2023-07-31T16:33:54;8.73;;;1.35;;
65039;SDS011;51606;45.000;38.612;2023-07-31T16:36:21;11.57;;;1.98;;
65039;SDS011;51606;45.000;38.612;2023-07-31T16:42:04;7.03;;;1.45;;
65039;SDS011;51606;45.000;38.612;2023-07-31T16:44:31;11.15;;;1.30;;
65039;SDS011;51606;45.000;38.612;2023-07-31T16:46:57;1.45;;;1.10;;
65039;SDS011;51606;45.000;38.612;2023-07-31T16:49:23;8.25;;;2.13;;
65039;SDS011;51606;45.000;38.612;2023-07-31T16:51:50;2.15;;;1.42;;
65039;SDS011;51606;45.000;38.612;2023-07-31T16:54:17;3.30;;;1.50;;
65039;SDS011;51606;45.000;38.612;2023-07-31T16:56:43;9.60;;;2.08;;
65039;SDS011;51606;45.000;38.612;2023-07-31T16:59:10;10.45;;;1.80;;
65039;SDS011;51606;45.000;38.612;2023-07-31T17:01:36;2.58;;;1.23;;
65039;SDS011;51606;45.000;38.612;2023-07-31T17:04:03;9.82;;;1.90;;
65039;SDS011;51606;45.000;38.612;2023-07-31T17:06:29;12.18;;;2.28;;
65039;SDS011;51606;45.000;38.612;2023-07-31T17:08:56;1.55;;;1.23;;
65039;SDS011;51606;45.000;38.612;2023-07-31T17:11:23;3.58;;;2.08;;
65039;SDS011;51606;45.000;38.612;2023-07-31T17:13:50;10.15;;;2.53;;
65039;SDS011;51606;45.000;38.612;2023-07-31T17:16:19;11.48;;;2.42;;
65039;SDS011;51606;45.000;38.612;2023-07-31T17:18:46;8.07;;;1.85;;
65039;SDS011;51606;45.000;38.612;2023-07-31T17:21:13;16.73;;;2.20;;
65039;SDS011;51606;45.000;38.612;2023-07-31T17:23:40;11.50;;;2.55;;
65039;SDS011;51606;45.000;38.612;2023-07-31T17:26:06;7.40;;;1.65;;
65039;SDS011;51606;45.000;38.612;2023-07-31T17:28:38;12.30;;;1.42;;
65039;SDS011;51606;45.000;38.612;2023-07-31T17:31:05;2.75;;;1.60;;
65039;SDS011;51606;45.000;38.612;2023-07-31T17:33:33;3.80;;;1.63;;
65039;SDS011;51606;45.000;38.612;2023-07-31T17:36:00;19.08;;;2.08;;
65039;SDS011;51606;45.000;38.612;2023-07-31T17:38:26;5.05;;;1.70;;
65039;SDS011;51606;45.000;38.612;2023-07-31T17:40:53;6.22;;;1.92;;
65039;SDS011;51606;45.000;38.612;2023-07-31T17:43:19;3.97;;;1.73;;
65039;SDS011;51606;45.000;38.612;2023-07-31T17:45:45;19.20;;;1.88;;
65039;SDS011;51606;45.000;38.612;2023-07-31T17:48:12;11.23;;;1.55;;
65039;SDS011;51606;45.000;38.612;2023-07-31T17:50:39;2.78;;;1.67;;
65039;SDS011;51606;45.000;38.612;2023-07-31T17:53:05;2.47;;;2.05;;
65039;SDS011;51606;45.000;38.612;2023-07-31T17:55:32;9.30;;;1.50;;
65039;SDS011;51606;45.000;38.612;2023-07-31T17:57:58;13.60;;;1.95;;
65039;SDS011;51606;45.000;38.612;2023-07-31T18:00:24;2.33;;;1.52;;
65039;SDS011;51606;45.000;38.612;2023-07-31T18:02:51;5.40;;;1.73;;
65039;SDS011;51606;45.000;38.612;2023-07-31T18:05:17;13.82;;;1.70;;
65039;SDS011;51606;45.000;38.612;2023-07-31T18:07:44;4.72;;;1.45;;
65039;SDS011;51606;45.000;38.612;2023-07-31T18:10:10;5.95;;;1.67;;
65039;SDS011;51606;45.000;38.612;2023-07-31T18:12:37;2.53;;;1.65;;
65039;SDS011;51606;45.000;38.612;2023-07-31T18:15:04;10.73;;;2.33;;
65039;SDS011;51606;45.000;38.612;2023-07-31T18:17:31;3.25;;;1.38;;
65039;SDS011;51606;45.000;38.612;2023-07-31T18:19:57;2.90;;;1.60;;
65039;SDS011;51606;45.000;38.612;2023-07-31T18:22:24;4.10;;;1.63;;
65039;SDS011;51606;45.000;38.612;2023-07-31T18:24:50;1.88;;;1.33;;
65039;SDS011;51606;45.000;38.612;2023-07-31T18:27:16;2.05;;;1.17;;
65039;SDS011;51606;45.000;38.612;2023-07-31T18:29:44;3.22;;;1.30;;
65039;SDS011;51606;45.000;38.612;2023-07-31T18:32:10;4.35;;;1.25;;
65039;SDS011;51606;45.000;38.612;2023-07-31T18:34:38;4.70;;;1.60;;
65039;SDS011;51606;45.000;38.612;2023-07-31T18:37:04;5.30;;;1.77;;
65039;SDS011;51606;45.000;38.612;2023-07-31T18:39:31;3.13;;;1.52;;
65039;SDS011;51606;45.000;38.612;2023-07-31T18:41:57;10.77;;;4.93;;
65039;SDS011;51606;45.000;38.612;2023-07-31T18:44:24;13.93;;;1.77;;
65039;SDS011;51606;45.000;38.612;2023-07-31T18:46:50;3.05;;;1.67;;
65039;SDS011;51606;45.000;38.612;2023-07-31T18:49:19;7.53;;;2.03;;